Time;durP1;ratioP1;P1;durP2;ratioP2;P2;SDS_P1;SDS_P2;PMS_P1;PMS_P2;Temp;Humidity;BMP_temperature;BMP_pressure;BME280_temperature;BME280_humidity;BME280_pressure;Samples;Min_cycle;Max_cycle;Signal;HPM_P1;HPM_P2
2023/09/06 00:00:49;;;;;;;5.18;4.13;;;;;;;17.73;95.45;95282.59;4794792;29;20191;-78
2023/09/06 00:03:14;;;;;;;8.48;4.00;;;;;;;17.63;95.40;95272.63;4798736;29;20268;-78
2023/09/06 00:05:43;;;;;;;4.90;4.18;;;;;;;17.76;95.72;95303.41;4798615;29;20318;-78
2023/09/06 00:08:13;;;;;;;6.30;3.60;;;;;;;17.62;96.20;95275.53;4798229;29;20180;-78
2023/09/06 00:10:39;;;;;;;4.47;3.58;;;;;;;17.71;96.05;95292.69;4794554;29;20260;-78
2023/09/06 00:13:09;;;;;;;6.18;4.03;;;;;;;17.65;96.26;95288.31;4795368;29;20645;-78
2023/09/06 00:15:35;;;;;;;4.32;3.90;;;;;;;17.63;96.69;95288.59;4780557;29;20180;-78
2023/09/06 00:18:05;;;;;;;15.70;4.50;;;;;;;17.62;96.69;95284.31;4799541;29;20569;-78
2023/09/06 00:20:31;;;;;;;7.50;4.28;;;;;;;17.53;96.67;95271.63;4797714;29;20191;-78
2023/09/06 00:22:58;;;;;;;5.85;3.95;;;;;;;17.56;96.73;95289.75;4797168;29;20208;-78
2023/09/06 00:25:26;;;;;;;4.43;4.03;;;;;;;17.56;96.71;95284.44;4791478;29;20199;-78
2023/09/06 00:27:52;;;;;;;5.10;4.00;;;;;;;17.45;96.40;95280.03;4797697;29;20228;-78
2023/09/06 00:30:18;;;;;;;6.82;4.28;;;;;;;17.37;96.58;95272.44;4797382;29;20576;-78
2023/09/06 00:32:45;;;;;;;5.95;4.38;;;;;;;17.46;96.73;95293.09;4798742;29;20183;-78
2023/09/06 00:35:10;;;;;;;5.10;4.60;;;;;;;17.45;96.98;95283.50;4800239;29;20180;-78
2023/09/06 00:37:37;;;;;;;6.05;4.13;;;;;;;17.45;96.81;95288.00;4795048;29;20169;-78
2023/09/06 00:40:21;;;;;;;9.52;7.40;;;;;;;17.39;96.66;95271.13;4796735;29;20237;-78
2023/09/06 00:42:51;;;;;;;9.82;5.07;;;;;;;17.41;96.44;95279.69;4802779;29;20196;-78
2023/09/06 00:45:21;;;;;;;7.03;4.50;;;;;;;17.13;96.55;95237.19;4804097;29;20191;-78
2023/09/06 00:47:48;;;;;;;6.17;4.77;;;;;;;17.27;97.29;95273.88;4794484;29;20813;-78
2023/09/06 00:50:14;;;;;;;6.25;4.93;;;;;;;17.28;97.62;95274.69;4793410;29;20441;-78
2023/09/06 00:52:40;;;;;;;7.10;5.05;;;;;;;17.25;97.56;95260.00;4796037;29;20265;-78
2023/09/06 00:55:06;;;;;;;5.57;4.78;;;;;;;17.33;97.82;95264.94;4797730;29;20196;-78
2023/09/06 00:57:32;;;;;;;5.60;4.63;;;;;;;17.40;97.80;95270.09;4796753;29;20218;-78
2023/09/06 00:59:59;;;;;;;5.85;4.65;;;;;;;17.27;97.70;95249.13;4796822;29;20209;-78
2023/09/06 01:02:26;;;;;;;8.32;5.72;;;;;;;17.41;97.44;95265.56;4779270;29;20213;-78
2023/09/06 01:04:52;;;;;;;5.70;4.90;;;;;;;17.27;97.34;95238.50;4796109;29;20214;-78
2023/09/06 01:07:19;;;;;;;4.85;4.10;;;;;;;17.45;97.07;95259.53;4798984;29;20179;-78
2023/09/06 01:09:45;;;;;;;7.25;5.65;;;;;;;17.44;97.41;95259.78;4781560;29;20190;-78
2023/09/06 01:12:12;;;;;;;11.95;4.35;;;;;;;17.45;97.51;95262.19;4798671;29;20180;-78
2023/09/06 01:14:40;;;;;;;5.47;4.82;;;;;;;17.48;97.66;95261.69;4796273;29;20180;-78
2023/09/06 01:17:07;;;;;;;7.85;4.57;;;;;;;17.41;97.53;95255.72;4793393;29;20185;-78
2023/09/06 01:19:36;;;;;;;5.75;4.18;;;;;;;17.48;97.39;95259.03;4796559;29;20182;-78
2023/09/06 01:22:08;;;;;;;4.68;3.97;;;;;;;17.55;97.67;95262.34;4793296;29;20204;-78
2023/09/06 01:24:34;;;;;;;5.07;4.28;;;;;;;17.43;98.02;95240.31;4799102;29;20596;-78
2023/09/06 01:27:00;;;;;;;9.07;4.00;;;;;;;17.47;98.19;95246.75;4797510;29;20232;-78
2023/09/06 01:29:29;;;;;;;6.63;5.20;;;;;;;17.56;98.32;95261.28;4797830;29;20176;-78
2023/09/06 01:31:54;;;;;;;5.63;4.72;;;;;;;17.64;98.16;95265.44;4793241;29;20184;-78
2023/09/06 01:34:19;;;;;;;7.57;4.28;;;;;;;17.60;97.91;95261.59;4794023;29;20176;-78
2023/09/06 01:36:45;;;;;;;8.40;5.00;;;;;;;17.63;97.99;95266.47;4795188;29;20653;-79
2023/09/06 01:39:10;;;;;;;7.88;4.75;;;;;;;17.52;97.81;95251.38;4793031;29;20191;-79
2023/09/06 01:41:36;;;;;;;5.25;4.32;;;;;;;17.66;98.08;95266.78;4779290;29;20204;-78
2023/09/06 01:44:01;;;;;;;5.47;4.75;;;;;;;17.59;97.79;95252.81;4794367;29;20181;-78
2023/09/06 01:46:26;;;;;;;11.55;4.75;;;;;;;17.66;97.74;95258.78;4796001;29;20228;-78
2023/09/06 01:48:52;;;;;;;5.70;4.18;;;;;;;17.57;97.89;95241.59;4795285;29;20224;-78
2023/09/06 01:51:17;;;;;;;6.07;4.38;;;;;;;17.60;97.73;95246.44;4801287;29;20184;-78
2023/09/06 01:53:43;;;;;;;5.28;4.53;;;;;;;17.62;97.71;95247.03;4796750;29;20203;-78
2023/09/06 01:56:08;;;;;;;4.80;4.20;;;;;;;17.68;97.39;95253.22;4799415;29;20672;-78
2023/09/06 01:58:37;;;;;;;6.63;3.92;;;;;;;17.69;97.05;95258.31;4797876;29;20679;-78
2023/09/06 02:01:04;;;;;;;6.20;4.82;;;;;;;17.62;96.75;95241.72;4798088;29;20188;-78
2023/09/06 02:03:32;;;;;;;7.20;4.30;;;;;;;17.67;96.78;95248.94;4796249;29;20653;-79
2023/09/06 02:05:57;;;;;;;5.80;4.63;;;;;;;17.66;96.82;95253.47;4795207;29;20855;-78
2023/09/06 02:08:22;;;;;;;4.40;3.85;;;;;;;17.64;96.35;95252.91;4793516;29;20180;-79
2023/09/06 02:10:48;;;;;;;6.70;4.47;;;;;;;17.63;96.80;95256.63;4794559;29;20244;-79
2023/09/06 02:13:14;;;;;;;8.13;4.20;;;;;;;17.66;95.69;95253.47;4795415;29;20638;-79
2023/09/06 02:15:40;;;;;;;5.05;4.03;;;;;;;17.63;94.70;95253.97;4779593;29;20191;-79
2023/09/06 02:18:06;;;;;;;6.00;3.65;;;;;;;17.70;94.53;95254.59;4795787;29;20641;-78
2023/09/06 02:20:31;;;;;;;5.75;4.47;;;;;;;17.61;94.14;95229.41;4796889;29;20241;-79
2023/09/06 02:22:57;;;;;;;4.63;3.88;;;;;;;17.60;94.54;95238.44;4795481;29;20189;-78
2023/09/06 02:25:25;;;;;;;7.05;5.35;;;;;;;17.72;94.87;95249.03;4795718;29;20196;-79
2023/09/06 02:27:52;;;;;;;6.22;4.60;;;;;;;17.67;94.78;95252.41;4797812;29;20311;-79
2023/09/06 02:30:17;;;;;;;6.45;4.22;;;;;;;17.66;95.22;95258.78;4796948;29;20191;-79
2023/09/06 02:32:42;;;;;;;6.60;4.68;;;;;;;17.69;95.62;95260.16;4793557;29;20244;-78
2023/09/06 02:35:08;;;;;;;5.38;4.30;;;;;;;17.63;95.54;95261.97;4777298;30;20259;-78
2023/09/06 02:37:34;;;;;;;5.47;4.43;;;;;;;17.62;95.63;95263.00;4788270;29;20187;-79
2023/09/06 02:40:01;;;;;;;4.28;3.88;;;;;;;17.57;95.42;95248.78;4793296;29;20197;-78
2023/09/06 02:42:26;;;;;;;6.38;4.50;;;;;;;17.69;94.93;95262.84;4795011;29;20208;-78
2023/09/06 02:44:53;;;;;;;5.18;4.50;;;;;;;17.72;94.02;95257.03;4794695;29;20196;-78
2023/09/06 02:47:25;;;;;;;5.07;4.13;;;;;;;17.59;94.02;95236.84;4788871;29;20187;-79
2023/09/06 02:49:55;;;;;;;7.35;4.78;;;;;;;17.55;94.76;95240.25;4795757;29;20553;-79
2023/09/06 02:52:28;;;;;;;9.27;4.40;;;;;;;17.63;93.58;95253.16;4779764;29;20818;-79
2023/09/06 02:54:57;;;;;;;5.40;4.40;;;;;;;17.49;93.63;95244.66;4793524;29;20243;-79
2023/09/06 02:57:24;;;;;;;4.70;3.70;;;;;;;17.60;93.44;95257.09;4789829;29;20244;-79
2023/09/06 02:59:51;;;;;;;6.63;3.90;;;;;;;17.50;93.63;95254.28;4786718;30;20230;-79
2023/09/06 03:02:22;;;;;;;7.35;4.60;;;;;;;17.43;93.54;95242.19;4796468;29;20813;-79
2023/09/06 03:04:51;;;;;;;9.77;3.97;;;;;;;17.33;93.32;95242.84;4793580;29;20261;-79
2023/09/06 03:07:18;;;;;;;8.18;4.10;;;;;;;17.30;93.78;95251.28;4793643;29;20184;-79
2023/09/06 03:09:44;;;;;;;10.45;4.80;;;;;;;17.44;94.11;95265.91;4795348;29;20176;-79
2023/09/06 03:12:14;;;;;;;6.32;3.70;;;;;;;17.48;93.59;95255.56;4796759;29;20188;-79
2023/09/06 03:14:44;;;;;;;11.45;4.18;;;;;;;17.49;93.37;95262.50;4795108;29;20432;-79
2023/09/06 03:17:18;;;;;;;5.28;3.92;;;;;;;17.40;93.38;95254.13;4797148;29;20275;-80
2023/09/06 03:19:46;;;;;;;7.40;4.30;;;;;;;17.51;93.06;95271.06;4793706;29;20184;-79
2023/09/06 03:22:12;;;;;;;7.47;4.50;;;;;;;17.52;92.86;95273.47;4798783;29;20685;-79
2023/09/06 03:24:43;;;;;;;4.88;3.58;;;;;;;17.55;92.90;95269.53;4796653;29;20206;-80
2023/09/06 03:27:15;;;;;;;6.65;4.10;;;;;;;17.56;92.81;95260.47;4780292;29;20662;-79
2023/09/06 03:29:40;;;;;;;8.63;4.22;;;;;;;17.53;92.57;95272.44;4798136;29;20443;-79
2023/09/06 03:32:09;;;;;;;9.30;4.93;;;;;;;17.52;92.17;95270.81;4799643;29;20173;-79
2023/09/06 03:34:36;;;;;;;7.38;4.53;;;;;;;17.49;92.68;95273.16;4798545;29;20184;-80
2023/09/06 03:37:05;;;;;;;6.78;4.38;;;;;;;17.48;92.91;95276.84;4794669;29;20274;-79
2023/09/06 03:39:37;;;;;;;5.28;4.40;;;;;;;17.46;93.14;95268.31;4796980;29;20188;-79
2023/09/06 03:42:08;;;;;;;7.53;4.50;;;;;;;17.50;93.08;95272.09;4798051;29;20201;-80
2023/09/06 03:44:37;;;;;;;5.88;4.30;;;;;;;17.52;93.27;95273.47;4778450;30;20193;-80
2023/09/06 03:47:05;;;;;;;6.88;4.53;;;;;;;17.53;93.09;95271.63;4789431;30;20638;-80
2023/09/06 03:49:32;;;;;;;8.40;4.70;;;;;;;17.41;93.46;95253.06;4796563;29;20253;-79
2023/09/06 03:51:58;;;;;;;11.90;4.63;;;;;;;17.52;93.79;95281.47;4797867;29;20184;-80
2023/09/06 03:54:24;;;;;;;7.47;4.85;;;;;;;17.51;93.91;95276.38;4796005;29;20211;-80
2023/09/06 03:56:49;;;;;;;6.07;4.65;;;;;;;17.32;94.13;95257.19;4798529;29;20645;-80
2023/09/06 03:59:16;;;;;;;10.50;4.95;;;;;;;17.27;94.24;95257.13;4799229;29;20214;-80
2023/09/06 04:01:43;;;;;;;6.43;4.70;;;;;;;17.42;94.53;95283.97;4799655;29;20208;-80
2023/09/06 04:04:10;;;;;;;9.18;5.05;;;;;;;17.46;94.60;95286.97;4799030;29;20176;-80
2023/09/06 04:06:35;;;;;;;7.57;5.03;;;;;;;17.45;94.87;95298.66;4798467;29;20567;-79
2023/09/06 04:09:01;;;;;;;8.73;5.40;;;;;;;17.33;95.23;95274.78;4779867;29;20184;-79
2023/09/06 04:11:26;;;;;;;5.45;4.93;;;;;;;17.33;95.58;95280.91;4793856;29;20633;-80
2023/09/06 04:13:52;;;;;;;9.32;4.70;;;;;;;17.45;95.57;95291.47;4796674;29;20255;-80
2023/09/06 04:16:17;;;;;;;8.75;4.93;;;;;;;17.33;95.71;95277.44;4807184;29;20186;-80
2023/09/06 04:18:43;;;;;;;8.57;4.88;;;;;;;17.49;95.92;95292.59;4807325;29;20183;-79
2023/09/06 04:21:09;;;;;;;13.50;5.03;;;;;;;17.45;96.14;95285.34;4798963;29;20180;-80
2023/09/06 04:23:39;;;;;;;7.88;5.38;;;;;;;17.53;95.90;95300.91;4798558;29;20199;-79
2023/09/06 04:26:05;;;;;;;11.30;6.68;;;;;;;17.43;95.49;95285.56;4797391;29;20570;-79
2023/09/06 04:28:30;;;;;;;7.85;5.82;;;;;;;17.49;95.71;95287.25;4794916;29;20223;-79
2023/09/06 04:30:57;;;;;;;11.95;5.72;;;;;;;17.57;96.00;95300.16;4793889;29;21013;-79
2023/09/06 04:33:23;;;;;;;10.82;6.13;;;;;;;17.63;96.05;95296.59;4796957;29;20245;-79
2023/09/06 04:35:49;;;;;;;8.98;5.15;;;;;;;17.65;96.12;95293.66;4795446;29;20184;-80
2023/09/06 04:38:17;;;;;;;9.10;5.13;;;;;;;17.68;96.09;95299.31;4800002;29;20183;-78
2023/09/06 04:40:44;;;;;;;11.10;6.07;;;;;;;17.51;95.90;95277.19;4795985;29;20591;-78
2023/09/06 04:43:10;;;;;;;6.90;5.40;;;;;;;17.68;95.93;95296.66;4788294;30;20196;-81
2023/09/06 04:45:39;;;;;;;9.35;5.57;;;;;;;17.71;95.61;95304.16;4788434;30;20188;-80
2023/09/06 04:48:05;;;;;;;6.68;5.32;;;;;;;17.72;95.39;95310.28;4788496;30;20570;-79
2023/09/06 04:50:31;;;;;;;12.65;6.32;;;;;;;17.78;95.20;95305.84;4788499;30;20184;-79
2023/09/06 04:52:57;;;;;;;10.05;4.80;;;;;;;17.86;92.98;95313.41;4798812;29;20168;-79
2023/09/06 04:55:23;;;;;;;6.95;4.90;;;;;;;17.70;92.61;95281.25;4798158;29;20176;-79
2023/09/06 04:57:53;;;;;;;8.43;5.00;;;;;;;17.97;91.78;95317.84;4796681;29;20192;-79
2023/09/06 05:00:24;;;;;;;10.85;5.10;;;;;;;18.01;92.53;95310.94;4798807;29;20267;-79
2023/09/06 05:02:54;;;;;;;7.22;5.15;;;;;;;18.09;93.06;95315.84;4794518;29;20231;-79
2023/09/06 05:05:21;;;;;;;10.85;4.03;;;;;;;18.04;91.95;95308.63;4795283;29;20198;-79
2023/09/06 05:07:46;;;;;;;10.10;5.15;;;;;;;18.04;90.64;95292.63;4800098;29;20209;-79
2023/09/06 05:10:12;;;;;;;8.50;5.75;;;;;;;18.16;91.85;95311.19;4782383;29;20279;-79
2023/09/06 05:12:38;;;;;;;9.45;5.25;;;;;;;18.10;92.95;95293.50;4795462;29;20195;-79
2023/09/06 05:15:05;;;;;;;9.07;5.30;;;;;;;18.12;92.72;95288.72;4796520;29;20194;-79
2023/09/06 05:17:32;;;;;;;8.05;5.82;;;;;;;18.31;92.27;95316.69;4797238;29;20641;-79
2023/09/06 05:20:25;;;;;;;8.35;5.40;;;;;;;18.33;91.95;95313.78;4797404;29;20263;-79
2023/09/06 05:22:50;;;;;;;9.63;5.10;;;;;;;18.30;90.78;95304.41;4769812;30;20193;-79
2023/09/06 05:25:16;;;;;;;9.10;5.03;;;;;;;18.36;89.49;95314.09;4775507;29;20190;-79
2023/09/06 05:27:41;;;;;;;5.90;4.53;;;;;;;18.52;89.77;95331.06;4796026;29;20663;-79
2023/09/06 05:30:07;;;;;;;9.57;5.25;;;;;;;18.57;89.79;95333.03;4794941;29;20279;-79
2023/09/06 05:32:32;;;;;;;8.55;4.80;;;;;;;18.45;86.65;95304.59;4796909;29;20214;-79
2023/09/06 05:35:00;;;;;;;12.00;4.80;;;;;;;18.58;85.61;95324.00;4792908;29;20653;-79
2023/09/06 05:37:26;;;;;;;8.23;4.38;;;;;;;18.63;85.71;95337.38;4795989;29;20191;-79
2023/09/06 05:39:51;;;;;;;8.40;3.90;;;;;;;18.67;84.93;95330.50;4795309;29;20177;-79
2023/09/06 05:42:17;;;;;;;6.35;4.57;;;;;;;18.50;84.03;95308.41;4796407;29;20287;-79
2023/09/06 05:44:43;;;;;;;9.98;4.82;;;;;;;18.59;84.94;95330.94;4778842;29;20188;-79
2023/09/06 05:47:08;;;;;;;6.20;4.57;;;;;;;18.57;83.83;95325.84;4796295;29;20617;-79
2023/09/06 05:49:35;;;;;;;8.93;5.03;;;;;;;18.72;84.29;95350.03;4799077;29;20192;-79
2023/09/06 05:52:01;;;;;;;6.35;4.07;;;;;;;18.63;82.14;95324.84;4796278;29;20254;-79
2023/09/06 05:54:26;;;;;;;15.60;4.32;;;;;;;18.69;82.58;95350.50;4796467;29;20267;-79
2023/09/06 05:56:52;;;;;;;7.43;4.38;;;;;;;18.68;82.99;95343.56;4795683;29;20188;-79
2023/09/06 05:59:19;;;;;;;5.57;4.10;;;;;;;18.74;82.61;95345.25;4795142;29;20349;-79
2023/09/06 06:01:44;;;;;;;9.60;4.43;;;;;;;18.76;82.07;95329.81;4797026;29;20283;-79
2023/09/06 06:04:11;;;;;;;8.50;3.85;;;;;;;18.79;82.16;95333.81;4795127;29;20190;-79
2023/09/06 06:06:36;;;;;;;10.07;4.55;;;;;;;18.81;81.89;95334.38;4795193;29;20328;-79
2023/09/06 06:09:03;;;;;;;7.72;4.50;;;;;;;18.95;80.84;95359.59;4793265;29;20271;-79
2023/09/06 06:11:29;;;;;;;12.38;3.65;;;;;;;18.97;80.90;95354.03;4793656;29;20314;-79
2023/09/06 06:13:55;;;;;;;6.32;3.45;;;;;;;18.90;80.04;95354.22;4793354;29;20184;-79
2023/09/06 06:16:20;;;;;;;5.65;3.70;;;;;;;18.98;80.65;95361.78;4796231;29;20579;-79
2023/09/06 06:18:48;;;;;;;11.23;4.05;;;;;;;19.02;79.55;95351.44;4796352;29;20661;-79
2023/09/06 06:21:13;;;;;;;6.15;3.92;;;;;;;19.09;80.53;95366.19;4794713;29;20603;-79
2023/09/06 06:23:43;;;;;;;5.57;3.53;;;;;;;18.93;79.07;95340.41;4794664;29;20274;-79
2023/09/06 06:26:09;;;;;;;5.43;3.78;;;;;;;19.18;78.45;95379.88;4780860;29;20202;-79
2023/09/06 06:28:34;;;;;;;6.78;3.72;;;;;;;19.01;77.77;95342.63;4793898;29;20732;-80
2023/09/06 06:30:59;;;;;;;5.82;3.28;;;;;;;19.19;78.57;95376.16;4776688;29;20304;-79
2023/09/06 06:33:25;;;;;;;6.22;3.92;;;;;;;19.16;77.76;95382.00;4795506;29;20192;-79
2023/09/06 06:35:51;;;;;;;6.72;3.88;;;;;;;19.12;77.94;95380.88;4794710;29;20267;-79
2023/09/06 06:38:16;;;;;;;8.02;3.85;;;;;;;19.37;77.71;95383.03;4776694;29;20192;-79
2023/09/06 06:40:41;;;;;;;6.15;3.63;;;;;;;19.42;77.19;95375.03;4789420;29;20188;-78
2023/09/06 06:43:07;;;;;;;7.00;3.55;;;;;;;19.62;76.73;95395.84;4793211;29;20233;-78
2023/09/06 06:45:32;;;;;;;5.18;3.97;;;;;;;19.72;76.38;95388.69;4792712;29;20192;-78
2023/09/06 06:47:58;;;;;;;5.63;3.42;;;;;;;19.93;76.56;95398.50;4793697;29;20188;-78
2023/09/06 06:50:26;;;;;;;6.68;3.83;;;;;;;19.79;74.24;95397.31;4793098;29;20646;-79
2023/09/06 06:52:52;;;;;;;8.95;3.45;;;;;;;19.61;74.81;95380.84;4792746;29;20187;-81
2023/09/06 06:55:19;;;;;;;5.13;3.20;;;;;;;19.65;74.82;95397.97;4790403;29;20177;-80
2023/09/06 06:57:45;;;;;;;5.30;3.63;;;;;;;19.62;74.74;95374.47;4798391;29;20196;-81
2023/09/06 07:00:11;;;;;;;5.60;3.83;;;;;;;19.72;74.59;95396.69;4799027;29;20191;-79
2023/09/06 07:02:39;;;;;;;5.82;3.90;;;;;;;19.67;74.32;95380.63;4780306;29;20700;-82
2023/09/06 07:05:05;;;;;;;7.15;3.50;;;;;;;19.84;73.91;95400.03;4792570;29;20649;-81
2023/09/06 07:07:31;;;;;;;9.65;4.25;;;;;;;19.59;73.83;95355.19;4790118;30;20250;-80
2023/09/06 07:09:56;;;;;;;6.40;3.83;;;;;;;19.98;73.91;95404.94;4796404;29;20188;-79
2023/09/06 07:12:21;;;;;;;5.15;3.40;;;;;;;19.95;73.66;95388.34;4795565;29;20176;-81
2023/09/06 07:14:47;;;;;;;8.50;3.75;;;;;;;20.11;72.40;95401.81;4803077;29;20267;-81
2023/09/06 07:17:12;;;;;;;9.40;3.22;;;;;;;20.21;72.76;95404.56;4795216;29;20253;-81
2023/09/06 07:19:37;;;;;;;7.57;3.20;;;;;;;20.16;72.19;95396.50;4790134;30;20255;-81
2023/09/06 07:22:03;;;;;;;4.60;3.42;;;;;;;20.09;72.61;95406.63;4789812;30;20204;-81
2023/09/06 07:24:28;;;;;;;6.22;3.42;;;;;;;19.98;72.22;95410.28;4789929;30;20235;-81
2023/09/06 07:26:54;;;;;;;5.45;3.63;;;;;;;20.13;72.58;95397.84;4797183;29;20251;-81
2023/09/06 07:29:19;;;;;;;6.30;3.30;;;;;;;20.32;71.68;95396.34;4782393;29;20261;-79
2023/09/06 07:31:45;;;;;;;12.57;3.55;;;;;;;20.36;71.30;95391.31;4798264;29;20180;-80
2023/09/06 07:34:11;;;;;;;5.28;3.45;;;;;;;20.41;70.95;95391.34;4784751;29;20183;-80
2023/09/06 07:36:36;;;;;;;4.88;3.30;;;;;;;20.58;70.45;95388.53;4795986;29;20179;-81
2023/09/06 07:39:03;;;;;;;6.75;3.47;;;;;;;20.83;69.75;95393.19;4799494;29;20255;-81
2023/09/06 07:41:29;;;;;;;6.07;3.78;;;;;;;20.91;69.46;95382.78;4783143;29;20648;-80
2023/09/06 07:43:55;;;;;;;5.03;3.55;;;;;;;21.30;68.54;95393.88;4803089;29;20287;-80
2023/09/06 07:46:24;;;;;;;5.93;3.45;;;;;;;21.75;68.92;95376.25;4795756;29;20625;-82
2023/09/06 07:48:49;;;;;;;6.75;3.92;;;;;;;22.29;65.70;95379.22;4798149;29;20194;-80
2023/09/06 07:51:15;;;;;;;5.45;3.55;;;;;;;22.72;63.71;95398.44;4779771;29;20175;-82
2023/09/06 07:53:41;;;;;;;6.28;3.88;;;;;;;22.92;63.04;95372.31;4774996;30;20657;-82
2023/09/06 07:56:08;;;;;;;5.47;3.70;;;;;;;23.41;60.87;95376.13;4791532;29;20204;-84
2023/09/06 07:58:34;;;;;;;8.48;3.60;;;;;;;23.59;60.98;95341.34;4795083;29;20248;-84
2023/09/06 08:00:59;;;;;;;4.53;3.67;;;;;;;23.49;60.44;95375.56;4798082;29;20260;-82
2023/09/06 08:03:26;;;;;;;5.43;3.53;;;;;;;23.57;60.80;95381.13;4780495;29;20208;-82
2023/09/06 08:05:52;;;;;;;6.88;4.07;;;;;;;23.31;61.61;95366.22;4798665;29;20255;-80
2023/09/06 08:08:18;;;;;;;8.25;4.03;;;;;;;23.54;60.74;95373.63;4797644;29;20191;-79
2023/09/06 08:10:44;;;;;;;9.00;4.05;;;;;;;23.79;59.29;95382.59;4790108;29;20181;-83
2023/09/06 08:13:10;;;;;;;9.20;4.07;;;;;;;23.74;58.88;95394.19;4790349;29;20194;-81
2023/09/06 08:15:37;;;;;;;5.75;3.42;;;;;;;23.43;59.20;95361.31;4795393;29;20665;-79
2023/09/06 08:18:05;;;;;;;8.07;3.50;;;;;;;23.38;58.97;95385.53;4794201;29;20200;-79
2023/09/06 08:20:33;;;;;;;7.82;4.18;;;;;;;23.16;59.78;95394.00;4796333;29;20609;-81
2023/09/06 08:22:59;;;;;;;5.65;3.67;;;;;;;22.94;59.99;95388.16;4787790;29;20666;-83
2023/09/06 08:25:24;;;;;;;5.68;3.90;;;;;;;22.89;60.60;95380.94;4799857;29;20200;-84
2023/09/06 08:27:51;;;;;;;7.07;3.78;;;;;;;23.07;59.38;95408.28;4797310;29;20231;-84
2023/09/06 08:30:18;;;;;;;5.50;3.78;;;;;;;23.23;58.35;95385.63;4796429;29;20574;-79
2023/09/06 08:32:45;;;;;;;5.85;4.07;;;;;;;23.65;58.61;95390.50;4797467;29;20180;-84
2023/09/06 08:35:11;;;;;;;7.00;3.78;;;;;;;23.93;57.76;95384.38;4795642;29;20177;-83
2023/09/06 08:37:37;;;;;;;5.63;3.72;;;;;;;24.05;56.76;95400.13;4803486;29;20181;-81
2023/09/06 08:40:05;;;;;;;5.57;4.03;;;;;;;23.92;57.79;95377.38;4804794;29;20704;-83
2023/09/06 08:42:33;;;;;;;7.43;4.38;;;;;;;24.68;57.72;95383.94;4806199;29;20576;-81
2023/09/06 08:45:00;;;;;;;11.98;3.80;;;;;;;24.95;54.64;95368.03;4806417;29;20172;-83
2023/09/06 08:47:27;;;;;;;4.88;3.92;;;;;;;24.77;55.06;95384.91;4799674;29;20215;-80
2023/09/06 08:49:53;;;;;;;10.07;4.10;;;;;;;25.25;54.06;95374.94;4794272;29;20191;-79
2023/09/06 08:52:19;;;;;;;5.15;3.38;;;;;;;25.23;52.76;95376.31;4798300;29;20164;-79
2023/09/06 08:54:46;;;;;;;9.32;4.15;;;;;;;24.74;54.03;95386.28;4794976;29;20196;-79
2023/09/06 08:57:13;;;;;;;10.10;4.95;;;;;;;24.58;55.44;95384.06;4794548;29;20681;-79
2023/09/06 08:59:39;;;;;;;5.53;4.13;;;;;;;24.18;55.87;95379.84;4794485;29;20176;-79
2023/09/06 09:02:05;;;;;;;4.05;3.53;;;;;;;24.07;56.24;95390.69;4796936;29;20282;-78
2023/09/06 09:04:31;;;;;;;5.03;4.00;;;;;;;23.71;56.91;95362.47;4798072;29;20685;-79
2023/09/06 09:06:57;;;;;;;8.30;4.15;;;;;;;23.73;57.55;95371.06;4800847;29;20651;-78
2023/09/06 09:09:24;;;;;;;10.35;5.22;;;;;;;23.78;56.92;95364.88;4798289;29;20176;-78
2023/09/06 09:11:53;;;;;;;6.25;4.00;;;;;;;23.52;59.05;95343.56;4790300;29;20184;-79
2023/09/06 09:14:24;;;;;;;5.65;3.90;;;;;;;23.79;58.05;95364.56;4799478;29;20334;-79
2023/09/06 09:16:56;;;;;;;5.28;3.85;;;;;;;23.78;55.61;95371.06;4796871;29;20191;-78
2023/09/06 09:19:22;;;;;;;6.75;3.72;;;;;;;23.44;55.99;95375.56;4794272;29;20195;-77
2023/09/06 09:21:52;;;;;;;8.20;4.05;;;;;;;23.43;56.36;95365.91;4797927;29;20337;-76
2023/09/06 09:24:43;;;;;;;8.45;4.30;;;;;;;23.43;56.43;95371.28;4793519;29;20215;-76
2023/09/06 09:27:09;;;;;;;8.82;3.97;;;;;;;23.37;56.72;95375.06;4793922;29;20235;-76
2023/09/06 09:29:35;;;;;;;9.88;4.45;;;;;;;23.18;57.20;95381.06;4797817;29;20214;-76
2023/09/06 09:32:04;;;;;;;6.78;4.05;;;;;;;22.83;57.24;95357.84;4796920;29;20246;-77
2023/09/06 09:34:30;;;;;;;6.15;4.05;;;;;;;22.95;57.76;95377.16;4790407;29;20583;-76
2023/09/06 09:36:55;;;;;;;8.52;4.30;;;;;;;23.12;57.93;95382.19;4791455;29;20192;-77
2023/09/06 09:39:27;;;;;;;4.38;3.60;;;;;;;23.14;56.71;95387.28;4801908;29;20179;-76
2023/09/06 09:41:57;;;;;;;6.60;3.92;;;;;;;22.97;57.06;95390.31;4793234;29;20243;-77
2023/09/06 09:44:23;;;;;;;9.20;4.70;;;;;;;22.72;57.93;95372.38;4795250;29;20258;-78
2023/09/06 09:46:54;;;;;;;5.65;3.60;;;;;;;22.73;58.47;95376.69;4800008;29;20211;-77
2023/09/06 09:49:21;;;;;;;6.70;4.07;;;;;;;22.58;58.81;95368.66;4793796;29;20190;-78
2023/09/06 09:51:50;;;;;;;7.07;4.20;;;;;;;22.70;59.07;95385.28;4802216;29;20670;-78
2023/09/06 09:54:17;;;;;;;7.93;5.20;;;;;;;22.69;59.24;95375.63;4790241;29;20206;-76
2023/09/06 09:56:51;;;;;;;9.05;4.70;;;;;;;22.85;58.63;95393.31;4787825;29;20185;-78
2023/09/06 09:59:20;;;;;;;7.43;4.38;;;;;;;22.80;58.60;95382.59;4788933;29;20204;-78
2023/09/06 10:01:51;;;;;;;5.80;4.25;;;;;;;22.84;59.08;95375.59;4793207;29;20242;-78
2023/09/06 10:04:19;;;;;;;5.85;4.63;;;;;;;22.92;59.33;95375.00;4793563;29;20562;-79
2023/09/06 10:06:45;;;;;;;5.90;3.70;;;;;;;22.97;58.55;95368.03;4788749;29;20206;-78
2023/09/06 10:09:12;;;;;;;5.15;4.60;;;;;;;23.10;58.95;95367.41;4793104;29;20212;-78
2023/09/06 10:11:40;;;;;;;9.55;4.88;;;;;;;23.25;57.95;95351.22;4798326;29;20237;-78
2023/09/06 10:14:06;;;;;;;10.05;4.75;;;;;;;23.23;58.72;95358.75;4795944;29;20188;-78
2023/09/06 10:16:32;;;;;;;6.72;4.78;;;;;;;23.14;58.60;95349.66;4794589;29;20200;-78
2023/09/06 10:18:58;;;;;;;6.43;4.38;;;;;;;23.20;58.44;95357.41;4792738;29;20180;-79
2023/09/06 10:21:25;;;;;;;11.05;4.43;;;;;;;23.16;58.72;95353.69;4798146;29;20187;-78
2023/09/06 10:23:51;;;;;;;7.82;3.88;;;;;;;23.31;59.14;95348.22;4801671;29;20191;-78
2023/09/06 10:26:27;;;;;;;8.02;4.60;;;;;;;23.40;58.07;95351.13;4794543;29;20240;-78
2023/09/06 10:28:57;;;;;;;10.48;4.53;;;;;;;23.43;57.66;95350.56;4792862;29;20228;-79
2023/09/06 10:31:33;;;;;;;5.72;4.30;;;;;;;23.38;57.99;95361.34;4796236;29;20218;-78
2023/09/06 10:33:59;;;;;;;10.32;4.90;;;;;;;23.32;58.37;95344.47;4803237;29;20274;-78
2023/09/06 10:36:27;;;;;;;7.63;4.53;;;;;;;23.44;58.69;95344.09;4778567;29;20188;-79
2023/09/06 10:38:52;;;;;;;8.20;4.97;;;;;;;23.48;58.58;95347.84;4786555;29;20185;-78
2023/09/06 10:41:23;;;;;;;6.60;3.88;;;;;;;23.44;58.24;95349.47;4802188;29;20241;-78
2023/09/06 10:43:48;;;;;;;7.72;4.15;;;;;;;23.51;58.67;95346.50;4796182;29;20179;-78
2023/09/06 10:46:23;;;;;;;10.15;4.78;;;;;;;23.62;58.07;95345.34;4793558;29;20742;-78
2023/09/06 10:49:11;;;;;;;7.75;5.00;;;;;;;23.85;57.73;95347.31;4795693;29;20263;-78
2023/09/06 10:52:08;;;;;;;10.75;4.57;;;;;;;23.86;56.63;95357.00;4797495;29;20180;-78
2023/09/06 10:54:42;;;;;;;10.18;4.38;;;;;;;23.80;55.56;95341.97;4782531;29;20587;-78
2023/09/06 10:57:12;;;;;;;11.55;4.45;;;;;;;23.64;56.27;95321.66;4802101;29;20176;-78
2023/09/06 10:59:45;;;;;;;8.73;4.70;;;;;;;23.65;55.89;95342.09;4799246;29;20653;-77
2023/09/06 11:02:37;;;;;;;11.43;5.10;;;;;;;23.51;55.70;95341.94;4781247;29;20200;-77
2023/09/06 11:05:15;;;;;;;8.77;5.20;;;;;;;23.50;55.40;95345.72;4797190;29;20196;-78
2023/09/06 11:07:45;;;;;;;10.38;5.20;;;;;;;23.49;55.83;95344.09;4806782;29;20568;-77
2023/09/06 11:10:11;;;;;;;8.23;4.50;;;;;;;23.42;56.85;95340.09;4797374;29;20184;-77
2023/09/06 11:12:38;;;;;;;8.95;4.18;;;;;;;23.41;57.29;95333.91;4796717;29;20180;-78
2023/09/06 11:15:09;;;;;;;6.47;4.47;;;;;;;23.48;57.99;95347.84;4800583;29;20191;-78
2023/09/06 11:17:35;;;;;;;8.35;4.78;;;;;;;23.35;58.93;95324.28;4797197;29;20184;-79
2023/09/06 11:20:14;;;;;;;7.60;4.32;;;;;;;23.47;59.14;95330.09;4796126;29;20192;-78
2023/09/06 11:22:49;;;;;;;6.95;3.92;;;;;;;23.50;59.67;95332.28;4789486;29;20204;-78
2023/09/06 11:25:22;;;;;;;9.40;4.45;;;;;;;23.52;59.73;95330.13;4798419;29;20187;-78
2023/09/06 11:27:49;;;;;;;8.75;4.85;;;;;;;23.53;60.09;95331.69;4794172;29;20240;-78
2023/09/06 11:30:18;;;;;;;9.80;4.63;;;;;;;23.47;60.38;95308.59;4794139;29;20176;-79
2023/09/06 11:32:46;;;;;;;5.07;4.00;;;;;;;23.52;60.11;95323.94;4799101;29;20184;-77